createdAt,value
2018-08-22T00:01:35.904Z,24.90
2018-08-22T00:04:04.818Z,25.53
2018-08-22T00:06:33.716Z,25.50
2018-08-22T00:09:02.976Z,26.77
2018-08-22T00:11:31.703Z,25.87
2018-08-22T00:14:00.443Z,25.53
2018-08-22T00:16:29.238Z,26.30
2018-08-22T00:18:57.895Z,27.90
2018-08-22T00:21:26.558Z,27.73
2018-08-22T00:23:55.255Z,27.57
2018-08-22T00:26:23.910Z,27.90
2018-08-22T00:28:52.703Z,28.57
2018-08-22T00:31:21.513Z,29.83
2018-08-22T00:33:50.228Z,29.63
2018-08-22T00:36:19.630Z,29.67
2018-08-22T00:38:48.242Z,30.80
2018-08-22T00:41:16.903Z,29.93
2018-08-22T00:43:45.954Z,30.27
2018-08-22T00:46:14.598Z,28.27
2018-08-22T00:48:48.885Z,27.47
2018-08-22T00:51:39.513Z,28.50
2018-08-22T00:54:08.594Z,28.60
2018-08-22T00:56:37.616Z,26.60
2018-08-22T00:59:06.691Z,27.83
2018-08-22T01:01:35.480Z,28.07
2018-08-22T01:04:04.358Z,27.30
2018-08-22T01:06:33.115Z,27.50
2018-08-22T01:09:03.647Z,27.53
2018-08-22T01:11:32.378Z,27.87
2018-08-22T01:14:01.085Z,27.80
2018-08-22T01:16:29.802Z,29.20
2018-08-22T01:18:58.576Z,27.57
2018-08-22T01:21:27.316Z,27.43
2018-08-22T01:23:56.041Z,28.33
2018-08-22T01:26:24.848Z,31.10
2018-08-22T01:28:53.436Z,30.10
2018-08-22T01:31:22.068Z,30.63
2018-08-22T01:33:50.692Z,31.13
2018-08-22T01:36:19.290Z,30.60
2018-08-22T01:38:47.885Z,27.20
2018-08-22T01:41:16.509Z,28.07
2018-08-22T01:43:45.115Z,27.03
2018-08-22T01:46:13.705Z,29.47
2018-08-22T01:48:42.366Z,28.10
2018-08-22T01:51:11.098Z,27.63
2018-08-22T01:53:39.769Z,28.30
2018-08-22T01:56:08.511Z,28.60
2018-08-22T01:58:37.223Z,27.80
2018-08-22T02:01:06.017Z,24.93
2018-08-22T02:03:34.763Z,24.43
2018-08-22T02:06:03.476Z,25.90
2018-08-22T02:08:32.112Z,28.90
2018-08-22T02:11:00.683Z,29.80
2018-08-22T02:13:29.255Z,30.67
2018-08-22T02:15:57.910Z,32.30
2018-08-22T02:18:26.603Z,33.53
2018-08-22T02:20:55.288Z,27.93
2018-08-22T02:23:24.008Z,30.53
2018-08-22T02:25:52.718Z,25.53
2018-08-22T02:28:21.368Z,27.43
2018-08-22T02:30:49.988Z,27.63
2018-08-22T02:33:18.567Z,31.50
2018-08-22T02:35:47.237Z,30.57
2018-08-22T02:38:21.195Z,30.80
2018-08-22T02:40:49.775Z,31.23
2018-08-22T02:43:18.375Z,29.43
2018-08-22T02:45:47.042Z,30.07
2018-08-22T02:48:16.090Z,32.50
2018-08-22T02:50:44.834Z,31.77
2018-08-22T02:53:13.516Z,34.87
2018-08-22T02:55:42.449Z,34.57
2018-08-22T02:58:11.342Z,32.63
2018-08-22T03:00:40.085Z,30.47
2018-08-22T03:03:08.805Z,33.80
2018-08-22T03:05:37.559Z,33.67
2018-08-22T03:08:06.365Z,30.80
2018-08-22T03:10:34.969Z,33.17
2018-08-22T03:13:03.575Z,29.17
2018-08-22T03:15:32.167Z,26.03
2018-08-22T03:18:00.897Z,25.17
2018-08-22T03:20:29.716Z,27.00
2018-08-22T03:22:58.485Z,27.73
2018-08-22T03:25:27.290Z,31.13
2018-08-22T03:27:55.963Z,32.23
2018-08-22T03:30:24.624Z,35.97
2018-08-22T03:32:53.297Z,30.03
2018-08-22T03:35:21.955Z,27.13
2018-08-22T03:37:50.596Z,33.20
2018-08-22T03:40:19.210Z,29.63
2018-08-22T03:42:47.830Z,27.10
2018-08-22T03:45:16.433Z,27.50
2018-08-22T03:47:45.172Z,32.20
2018-08-22T03:50:13.963Z,30.20
2018-08-22T03:52:42.686Z,28.33
2018-08-22T03:55:11.467Z,28.37
2018-08-22T03:57:40.797Z,26.03
2018-08-22T04:00:10.096Z,26.67
2018-08-22T04:02:38.933Z,28.23
2018-08-22T04:05:07.787Z,29.50
2018-08-22T04:07:36.482Z,30.13
2018-08-22T04:10:05.405Z,29.10
2018-08-22T04:12:34.055Z,27.07
2018-08-22T04:15:02.698Z,28.63
2018-08-22T04:17:37.171Z,26.50
2018-08-22T04:20:06.686Z,27.90
2018-08-22T04:22:37.405Z,29.43
2018-08-22T04:25:06.563Z,28.80
2018-08-22T04:27:35.834Z,30.43
2018-08-22T04:30:05.001Z,28.90
2018-08-22T04:32:33.606Z,32.33
2018-08-22T04:35:02.280Z,32.93
2018-08-22T04:37:30.991Z,30.87
2018-08-22T04:39:59.703Z,29.93
2018-08-22T04:42:28.320Z,29.67
2018-08-22T04:44:56.946Z,28.87
2018-08-22T04:47:25.576Z,28.47
2018-08-22T04:49:54.165Z,28.50
2018-08-22T04:52:23.028Z,24.30
2018-08-22T04:54:51.853Z,23.47
2018-08-22T04:57:20.481Z,24.33
2018-08-22T04:59:49.253Z,20.97
2018-08-22T05:02:17.881Z,22.00
2018-08-22T05:04:46.620Z,21.33
2018-08-22T05:07:15.255Z,20.37
2018-08-22T05:09:43.885Z,21.90
2018-08-22T05:12:12.561Z,18.90
2018-08-22T05:14:41.223Z,19.87
2018-08-22T05:17:09.929Z,20.83
2018-08-22T05:19:38.664Z,20.43
2018-08-22T05:22:07.418Z,21.57
2018-08-22T05:24:36.159Z,20.40
2018-08-22T05:27:04.874Z,18.40
2018-08-22T05:29:33.506Z,17.00
2018-08-22T05:32:02.130Z,17.73
2018-08-22T05:34:30.745Z,18.83
2018-08-22T05:36:59.518Z,17.23
2018-08-22T05:39:28.238Z,16.50
2018-08-22T05:41:57.328Z,16.40
2018-08-22T05:44:26.066Z,17.67
2018-08-22T05:46:54.883Z,17.30
2018-08-22T05:49:23.587Z,16.90
2018-08-22T05:51:52.373Z,18.10
2018-08-22T05:54:21.177Z,17.70
2018-08-22T05:56:49.918Z,16.37
2018-08-22T05:59:18.564Z,17.70
2018-08-22T06:01:47.250Z,17.27
2018-08-22T06:04:15.892Z,18.17
2018-08-22T06:06:44.566Z,18.17
2018-08-22T06:09:13.591Z,17.93
2018-08-22T06:11:43.194Z,17.60
2018-08-22T06:14:12.319Z,17.97
2018-08-22T06:16:41.051Z,17.27
2018-08-22T06:19:09.925Z,17.73
2018-08-22T06:21:38.659Z,17.23
2018-08-22T06:24:07.438Z,18.33
2018-08-22T06:26:36.117Z,17.93
2018-08-22T06:29:04.781Z,17.00
2018-08-22T06:31:33.474Z,18.15
2018-08-22T06:34:02.229Z,17.27
2018-08-22T06:36:31.000Z,18.15
2018-08-22T06:39:00.338Z,17.73
2018-08-22T06:41:29.573Z,17.50
2018-08-22T06:43:58.396Z,18.23
2018-08-22T06:46:27.357Z,18.40
2018-08-22T06:48:56.134Z,18.82
2018-08-22T06:51:28.531Z,19.27
2018-08-22T06:53:57.343Z,18.53
2018-08-22T06:56:26.475Z,18.67
2018-08-22T06:58:55.798Z,18.65
2018-08-22T07:01:24.484Z,18.12
2018-08-22T07:03:53.683Z,17.75
2018-08-22T07:06:22.302Z,17.02
2018-08-22T07:08:50.924Z,17.00
2018-08-22T07:11:19.634Z,17.07
2018-08-22T07:13:48.399Z,17.17
2018-08-22T07:16:17.207Z,16.90
2018-08-22T07:18:46.059Z,16.65
2018-08-22T07:21:14.862Z,16.67
2018-08-22T07:23:43.643Z,16.67
2018-08-22T07:26:12.747Z,16.73
2018-08-22T07:28:41.511Z,15.98
2018-08-22T07:31:10.329Z,16.50
2018-08-22T07:33:39.094Z,15.28
2018-08-22T07:36:08.419Z,15.95
2018-08-22T07:38:37.196Z,15.08
2018-08-22T07:41:07.238Z,15.53
2018-08-22T07:43:36.139Z,14.43
2018-08-22T07:46:05.680Z,12.88
2018-08-22T07:48:34.986Z,11.83
2018-08-22T07:51:03.816Z,11.50
2018-08-22T07:53:33.242Z,10.82
2018-08-22T07:56:01.985Z,11.08
2018-08-22T07:58:30.733Z,10.65
2018-08-22T08:00:59.458Z,11.03
2018-08-22T08:03:28.233Z,11.55
2018-08-22T08:05:57.684Z,10.98
2018-08-22T08:08:26.426Z,11.33
2018-08-22T08:10:55.210Z,11.18
2018-08-22T08:13:28.851Z,10.63
2018-08-22T08:15:58.391Z,9.88
2018-08-22T08:18:27.423Z,9.93
2018-08-22T08:20:56.143Z,10.68
2018-08-22T08:23:24.823Z,10.20
2018-08-22T08:25:53.556Z,9.48
2018-08-22T08:28:22.291Z,9.25
2018-08-22T08:30:51.032Z,9.88
2018-08-22T08:33:19.749Z,9.90
2018-08-22T08:35:48.529Z,8.75
2018-08-22T08:38:17.214Z,8.73
2018-08-22T08:40:45.960Z,8.83
2018-08-22T08:43:14.688Z,8.28
2018-08-22T08:45:43.449Z,8.73
2018-08-22T08:48:12.072Z,8.70
2018-08-22T08:50:41.638Z,8.20
2018-08-22T08:53:10.336Z,8.48
2018-08-22T08:55:38.971Z,8.05
2018-08-22T08:58:08.359Z,8.60
2018-08-22T09:00:36.963Z,8.33
2018-08-22T09:03:05.598Z,8.35
2018-08-22T09:05:34.258Z,8.23
2018-08-22T09:08:02.978Z,8.58
2018-08-22T09:10:32.204Z,8.60
2018-08-22T09:13:00.868Z,7.80
2018-08-22T09:15:29.581Z,8.50
2018-08-22T09:17:58.206Z,7.97
2018-08-22T09:20:26.876Z,7.45
2018-08-22T09:22:55.545Z,7.80
2018-08-22T09:25:24.273Z,8.08
2018-08-22T09:27:53.066Z,7.47
2018-08-22T09:30:21.786Z,8.10
2018-08-22T09:32:50.528Z,7.78
2018-08-22T09:35:19.283Z,7.67
2018-08-22T09:37:48.045Z,7.25
2018-08-22T09:40:16.790Z,7.80
2018-08-22T09:42:45.573Z,8.00
2018-08-22T09:45:14.297Z,7.22
2018-08-22T09:47:43.896Z,7.28
2018-08-22T09:50:12.775Z,7.50
2018-08-22T09:52:41.539Z,8.10
2018-08-22T09:55:10.238Z,7.60
2018-08-22T09:57:38.869Z,7.75
2018-08-22T10:00:12.426Z,7.97
2018-08-22T10:02:41.045Z,7.92
2018-08-22T10:05:09.686Z,7.83
2018-08-22T10:07:38.297Z,7.80
2018-08-22T10:10:06.957Z,7.80
2018-08-22T10:12:35.636Z,7.22
2018-08-22T10:15:04.409Z,7.40
2018-08-22T10:17:33.086Z,7.25
2018-08-22T10:20:01.718Z,7.72
2018-08-22T10:22:30.326Z,7.40
2018-08-22T10:24:59.291Z,7.58
2018-08-22T10:27:27.919Z,7.08
2018-08-22T10:29:56.526Z,6.37
2018-08-22T10:32:25.152Z,6.97
2018-08-22T10:34:53.866Z,6.67
2018-08-22T10:37:22.754Z,6.97
2018-08-22T10:39:51.495Z,6.78
2018-08-22T10:42:20.401Z,7.15
2018-08-22T10:44:49.276Z,6.55
2018-08-22T10:47:17.944Z,6.62
2018-08-22T10:49:46.691Z,6.85
2018-08-22T10:52:15.845Z,7.15
2018-08-22T10:54:44.612Z,6.70
2018-08-22T10:57:13.367Z,6.40
2018-08-22T10:59:42.101Z,6.50
2018-08-22T11:02:10.864Z,6.12
2018-08-22T11:04:40.192Z,6.25
2018-08-22T11:07:08.820Z,6.70
2018-08-22T11:09:37.448Z,6.55
2018-08-22T11:12:06.082Z,6.55
2018-08-22T11:14:34.858Z,6.60
2018-08-22T11:17:03.534Z,6.47
2018-08-22T11:19:32.206Z,6.40
2018-08-22T11:22:17.659Z,6.28
2018-08-22T11:25:03.447Z,6.33
2018-08-22T11:27:48.844Z,5.87
2018-08-22T11:30:34.480Z,5.70
2018-08-22T11:33:19.876Z,5.42
2018-08-22T11:35:46.743Z,6.25
2018-08-22T11:38:15.536Z,6.37
2018-08-22T11:40:44.228Z,6.03
2018-08-22T11:43:12.921Z,6.40
2018-08-22T11:45:41.777Z,6.03
2018-08-22T11:48:10.967Z,6.08
2018-08-22T11:50:39.834Z,5.87
2018-08-22T11:53:08.625Z,6.33
2018-08-22T11:55:37.961Z,6.80
2018-08-22T11:58:06.726Z,5.78
2018-08-22T12:00:35.760Z,6.00
2018-08-22T12:03:04.461Z,6.00
2018-08-22T12:05:33.131Z,5.58
2018-08-22T12:08:01.831Z,6.17
2018-08-22T12:10:31.185Z,5.90
2018-08-22T12:13:02.326Z,5.90
2018-08-22T12:15:31.432Z,6.22
2018-08-22T12:18:00.067Z,5.90
2018-08-22T12:20:29.159Z,6.12
2018-08-22T12:22:58.796Z,5.78
2018-08-22T12:25:28.680Z,5.80
2018-08-22T12:27:57.470Z,6.15
2018-08-22T12:30:26.127Z,5.78
2018-08-22T12:32:55.322Z,5.90
2018-08-22T12:35:23.999Z,6.42
2018-08-22T12:37:52.769Z,5.97
2018-08-22T12:40:21.432Z,6.10
2018-08-22T12:42:50.131Z,6.20
2018-08-22T12:45:19.230Z,6.40
2018-08-22T12:47:47.930Z,6.03
2018-08-22T12:50:16.858Z,6.08
2018-08-22T12:52:45.594Z,6.25
2018-08-22T12:55:14.344Z,6.42
2018-08-22T12:57:43.140Z,5.97
2018-08-22T13:00:11.987Z,6.35
2018-08-22T13:02:40.759Z,6.25
2018-08-22T13:05:09.639Z,5.72
2018-08-22T13:07:38.457Z,5.70
2018-08-22T13:10:07.387Z,5.95
2018-08-22T13:12:36.374Z,6.53
2018-08-22T13:15:06.339Z,5.97
2018-08-22T13:17:35.520Z,6.17
2018-08-22T13:20:04.849Z,5.80
2018-08-22T13:22:33.751Z,6.10
2018-08-22T13:25:02.999Z,5.90
2018-08-22T13:27:31.884Z,6.37
2018-08-22T13:30:00.704Z,5.75
2018-08-22T13:32:29.988Z,6.08
2018-08-22T13:34:58.805Z,7.42
2018-08-22T13:37:27.642Z,7.92
2018-08-22T13:39:56.558Z,7.85
2018-08-22T13:42:25.639Z,8.18
2018-08-22T13:44:54.323Z,8.33
2018-08-22T13:47:23.006Z,8.58
2018-08-22T13:49:51.699Z,8.05
2018-08-22T13:52:20.546Z,8.53
2018-08-22T13:54:49.519Z,8.20
2018-08-22T13:57:18.417Z,7.80
2018-08-22T13:59:47.167Z,8.18
2018-08-22T14:02:16.599Z,8.13
2018-08-22T14:04:45.644Z,7.92
2018-08-22T14:07:14.289Z,7.85
2018-08-22T14:09:42.965Z,8.18
2018-08-22T14:12:12.082Z,8.90
2018-08-22T14:14:40.816Z,9.43
2018-08-22T14:17:10.107Z,10.25
2018-08-22T14:19:38.972Z,10.60
2018-08-22T14:22:07.634Z,10.50
2018-08-22T14:24:36.352Z,10.35
2018-08-22T14:27:05.240Z,9.28
2018-08-22T14:29:33.908Z,8.93
2018-08-22T14:32:02.589Z,8.43
2018-08-22T14:34:31.334Z,8.68
2018-08-22T14:36:59.999Z,8.50
2018-08-22T14:39:28.835Z,9.10
2018-08-22T14:41:57.567Z,8.25
2018-08-22T14:44:26.397Z,8.25
2018-08-22T14:46:55.002Z,9.07
2018-08-22T14:49:23.632Z,10.03
2018-08-22T14:51:52.328Z,10.53
2018-08-22T14:54:21.120Z,11.70
2018-08-22T14:56:50.478Z,10.80
2018-08-22T14:59:19.094Z,10.67
2018-08-22T15:01:47.845Z,10.67
2018-08-22T15:04:17.132Z,10.70
2018-08-22T15:06:45.896Z,11.50
2018-08-22T15:09:19.415Z,9.93
2018-08-22T15:11:49.198Z,10.13
2018-08-22T15:14:19.018Z,10.57
2018-08-22T15:16:47.703Z,10.27
2018-08-22T15:19:16.490Z,10.30
2018-08-22T15:21:45.250Z,9.90
2018-08-22T15:24:14.003Z,9.57
2018-08-22T15:26:42.849Z,9.60
2018-08-22T15:29:11.488Z,9.27
2018-08-22T15:31:40.163Z,9.80
2018-08-22T15:34:09.180Z,9.60
2018-08-22T15:36:37.893Z,10.63
2018-08-22T15:39:10.363Z,11.97
2018-08-22T15:41:39.923Z,10.93
2018-08-22T15:44:08.704Z,11.77
2018-08-22T15:46:37.516Z,10.73
2018-08-22T15:49:06.243Z,11.13
2018-08-22T15:51:35.377Z,12.10
2018-08-22T15:54:13.206Z,12.87
2018-08-22T15:56:42.089Z,16.37
2018-08-22T15:59:12.070Z,16.10
2018-08-22T16:01:40.871Z,12.70
2018-08-22T16:04:10.078Z,13.03
2018-08-22T16:06:38.898Z,12.77
2018-08-22T16:09:15.670Z,13.00
2018-08-22T16:11:45.185Z,12.07
2018-08-22T16:14:14.061Z,13.27
2018-08-22T16:16:42.884Z,16.00
2018-08-22T16:19:12.744Z,15.03
2018-08-22T16:21:41.494Z,17.20
2018-08-22T16:24:10.287Z,18.33
2018-08-22T16:26:39.069Z,19.70
2018-08-22T16:29:07.795Z,13.27
2018-08-22T16:31:42.149Z,12.80
2018-08-22T16:34:11.561Z,12.57
2018-08-22T16:36:40.371Z,12.37
2018-08-22T16:39:09.861Z,14.50
2018-08-22T16:41:38.806Z,14.80
2018-08-22T16:44:09.244Z,15.17
2018-08-22T16:46:38.116Z,16.70
2018-08-22T16:49:07.348Z,16.37
2018-08-22T16:51:36.038Z,16.47
2018-08-22T16:54:09.426Z,15.83
2018-08-22T16:56:38.311Z,16.00
2018-08-22T16:59:10.154Z,15.80
2018-08-22T17:01:41.587Z,15.67
2018-08-22T17:04:10.413Z,17.20
2018-08-22T17:06:39.288Z,16.43
2018-08-22T17:09:09.853Z,17.57
2018-08-22T17:11:39.049Z,16.70
2018-08-22T17:14:07.912Z,17.37
2018-08-22T17:16:36.569Z,17.80
2018-08-22T17:19:05.473Z,15.40
2018-08-22T17:21:34.716Z,14.47
2018-08-22T17:24:03.361Z,15.77
2018-08-22T17:26:32.018Z,17.13
2018-08-22T17:29:01.181Z,17.87
2018-08-22T17:31:30.300Z,16.87
2018-08-22T17:34:01.378Z,13.30
2018-08-22T17:36:30.046Z,17.40
2018-08-22T17:38:59.880Z,18.80
2018-08-22T17:41:29.650Z,18.50
2018-08-22T17:44:04.038Z,19.00
2018-08-22T17:46:36.609Z,19.70
2018-08-22T17:49:05.491Z,20.10
2018-08-22T17:52:37.283Z,19.40
2018-08-22T17:55:06.544Z,18.93
2018-08-22T17:57:35.292Z,20.63
2018-08-22T18:00:04.271Z,20.10
2018-08-22T18:02:32.986Z,20.73
2018-08-22T18:05:02.948Z,20.40
2018-08-22T18:07:31.623Z,19.87
2018-08-22T18:10:02.193Z,20.10
2018-08-22T18:12:31.044Z,21.07
2018-08-22T18:15:01.761Z,18.70
2018-08-22T18:17:30.561Z,17.93
2018-08-22T18:19:59.635Z,19.27
2018-08-22T18:22:33.120Z,20.40
2018-08-22T18:25:01.927Z,20.40
2018-08-22T18:27:30.660Z,19.60
2018-08-22T18:29:59.355Z,19.40
2018-08-22T18:32:28.048Z,18.60
2018-08-22T18:35:10.058Z,19.70
2018-08-22T18:37:39.469Z,20.23
2018-08-22T18:40:22.641Z,20.93
2018-08-22T18:42:57.057Z,21.70
2018-08-22T18:45:26.326Z,22.57
2018-08-22T18:47:55.018Z,22.80
2018-08-22T18:50:23.912Z,22.93
2018-08-22T18:53:00.506Z,22.53
2018-08-22T18:55:33.578Z,22.37
2018-08-22T18:58:04.316Z,22.20
2018-08-22T19:00:37.098Z,22.00
2018-08-22T19:03:05.927Z,23.57
2018-08-22T19:05:35.992Z,23.53
2018-08-22T19:08:13.841Z,22.90
2018-08-22T19:10:45.956Z,20.70
2018-08-22T19:13:17.962Z,22.77
2018-08-22T19:15:50.784Z,22.93
2018-08-22T19:18:19.509Z,21.37
2018-08-22T19:20:49.284Z,23.33
2018-08-22T19:23:17.969Z,21.47
2018-08-22T19:25:48.626Z,21.93
2018-08-22T19:28:18.307Z,20.87
2018-08-22T19:30:47.436Z,21.67
2018-08-22T19:33:20.182Z,21.63
2018-08-22T19:35:49.051Z,20.57
2018-08-22T19:38:20.126Z,20.33
2018-08-22T19:40:48.928Z,20.70
2018-08-22T19:43:17.682Z,19.07
2018-08-22T19:45:46.464Z,19.23
2018-08-22T19:48:15.099Z,19.90
2018-08-22T19:50:43.764Z,18.50
2018-08-22T19:53:13.364Z,19.50
2018-08-22T19:55:42.107Z,19.00
2018-08-22T19:58:11.454Z,19.73
2018-08-22T20:00:40.284Z,20.83
2018-08-22T20:03:09.237Z,20.13
2018-08-22T20:05:52.670Z,20.47
2018-08-22T20:08:27.016Z,20.50
2018-08-22T20:10:57.088Z,19.80
2018-08-22T20:13:37.763Z,20.00
2018-08-22T20:16:06.787Z,19.27
2018-08-22T20:18:36.285Z,19.23
2018-08-22T20:21:05.214Z,19.77
2018-08-22T20:23:34.041Z,18.67
2018-08-22T20:26:03.239Z,20.60
2018-08-22T20:28:33.292Z,21.33
2018-08-22T20:31:06.767Z,21.27
2018-08-22T20:33:36.162Z,22.13
2018-08-22T20:36:05.646Z,21.17
2018-08-22T20:38:34.856Z,21.60
2018-08-22T20:41:08.619Z,21.23
2018-08-22T20:43:37.459Z,21.97
2018-08-22T20:46:06.342Z,21.17
2018-08-22T20:48:36.172Z,25.80
2018-08-22T20:51:05.044Z,27.33
2018-08-22T20:53:33.782Z,26.93
2018-08-22T20:56:02.676Z,28.07
2018-08-22T20:58:31.446Z,27.70
2018-08-22T21:01:00.679Z,27.47
2018-08-22T21:03:29.458Z,27.27
2018-08-22T21:05:58.998Z,25.70
2018-08-22T21:08:28.782Z,26.17
2018-08-22T21:10:57.507Z,25.73
2018-08-22T21:13:28.658Z,27.13
2018-08-22T21:15:57.921Z,24.23
2018-08-22T21:18:26.903Z,23.27
2018-08-22T21:20:56.344Z,21.37
2018-08-22T21:23:25.913Z,22.77
2018-08-22T21:25:54.736Z,21.40
2018-08-22T21:28:29.818Z,24.23
2018-08-22T21:30:59.818Z,23.33
2018-08-22T21:33:29.685Z,22.17
2018-08-22T21:35:58.484Z,24.17
2018-08-22T21:38:27.498Z,25.53
2018-08-22T21:40:56.225Z,25.80
2018-08-22T21:43:25.006Z,26.50
2018-08-22T21:45:53.637Z,30.03
2018-08-22T21:48:25.964Z,28.63
2018-08-22T21:50:54.695Z,28.43
2018-08-22T21:53:23.978Z,26.53
2018-08-22T21:55:53.300Z,27.67
2018-08-22T21:58:22.172Z,25.80
2018-08-22T22:00:50.833Z,27.57
2018-08-22T22:03:25.831Z,25.73
2018-08-22T22:06:01.009Z,25.27
2018-08-22T22:08:29.898Z,25.30
2018-08-22T22:11:04.000Z,24.10
2018-08-22T22:13:32.956Z,24.93
2018-08-22T22:16:04.172Z,23.50
2018-08-22T22:18:34.037Z,23.83
2018-08-22T22:21:12.936Z,23.57
2018-08-22T22:23:47.842Z,23.50
2018-08-22T22:26:18.425Z,24.27
2018-08-22T22:28:47.140Z,24.63
2018-08-22T22:31:17.154Z,24.80
2018-08-22T22:33:57.265Z,26.43
2018-08-22T22:36:26.693Z,25.23
2018-08-22T22:38:55.380Z,27.07
2018-08-22T22:41:27.798Z,25.57
2018-08-22T22:43:56.610Z,25.63
2018-08-22T22:46:25.415Z,27.83
2018-08-22T22:48:54.306Z,26.60
2018-08-22T22:51:23.221Z,27.00
2018-08-22T22:53:52.061Z,27.40
2018-08-22T22:56:20.948Z,26.70
2018-08-22T22:58:49.673Z,26.30
2018-08-22T23:01:18.436Z,26.30
2018-08-22T23:03:47.256Z,24.73
2018-08-22T23:06:16.085Z,25.17
2018-08-22T23:08:45.721Z,24.87
2018-08-22T23:11:14.547Z,24.87
2018-08-22T23:13:43.330Z,26.17
2018-08-22T23:16:12.128Z,26.37
2018-08-22T23:18:40.943Z,25.23
2018-08-22T23:21:09.710Z,25.40
2018-08-22T23:23:38.771Z,25.43
2018-08-22T23:26:18.922Z,26.07
2018-08-22T23:28:47.746Z,26.20
2018-08-22T23:31:19.036Z,26.33
2018-08-22T23:33:47.955Z,25.60
2018-08-22T23:36:16.747Z,25.47
2018-08-22T23:38:45.527Z,25.33
2018-08-22T23:41:14.230Z,26.47
2018-08-22T23:43:50.514Z,26.10
2018-08-22T23:46:19.434Z,27.13
2018-08-22T23:48:55.167Z,27.13
2018-08-22T23:51:23.960Z,28.40
2018-08-22T23:53:56.322Z,26.17
2018-08-22T23:56:26.172Z,27.17
2018-08-22T23:58:55.601Z,28.80
